createdAt,value
2018-01-21T00:01:43.754Z,18.50
2018-01-21T00:04:12.553Z,18.30
2018-01-21T00:06:41.275Z,18.30
2018-01-21T00:09:09.347Z,18.30
2018-01-21T00:11:37.409Z,18.50
2018-01-21T00:14:05.382Z,18.50
2018-01-21T00:16:33.365Z,18.50
2018-01-21T00:19:01.411Z,18.50
2018-01-21T00:21:29.339Z,18.60
2018-01-21T00:23:57.261Z,18.60
2018-01-21T00:26:25.349Z,18.50
2018-01-21T00:28:53.290Z,18.60
2018-01-21T00:31:21.211Z,18.70
2018-01-21T00:33:49.289Z,18.70
2018-01-21T00:36:17.319Z,18.70
2018-01-21T00:38:45.275Z,18.90
2018-01-21T00:41:13.315Z,19.20
2018-01-21T00:43:41.261Z,19.50
2018-01-21T00:46:09.162Z,19.80
2018-01-21T00:48:37.255Z,20.00
2018-01-21T00:51:05.948Z,20.00
2018-01-21T00:53:33.847Z,20.00
2018-01-21T00:56:02.639Z,20.10
2018-01-21T00:58:30.868Z,20.20
2018-01-21T01:01:00.128Z,20.30
2018-01-21T01:03:29.261Z,20.30
2018-01-21T01:05:58.029Z,20.30
2018-01-21T01:08:25.965Z,20.20
2018-01-21T01:10:54.863Z,20.20
2018-01-21T01:13:22.841Z,20.30
2018-01-21T01:15:52.736Z,20.60
2018-01-21T01:18:21.589Z,20.60
2018-01-21T01:20:50.457Z,20.50
2018-01-21T01:23:18.729Z,20.50
2018-01-21T01:25:47.338Z,20.50
2018-01-21T01:28:16.567Z,20.40
2018-01-21T01:30:44.655Z,20.40
2018-01-21T01:33:12.851Z,20.50
2018-01-21T01:35:41.411Z,20.60
2018-01-21T01:38:09.353Z,20.50
2018-01-21T01:40:39.141Z,20.40
2018-01-21T01:43:07.462Z,20.40
2018-01-21T01:45:35.787Z,20.40
2018-01-21T01:48:04.453Z,20.40
2018-01-21T01:50:32.413Z,20.50
2018-01-21T01:53:00.920Z,20.50
2018-01-21T01:55:29.586Z,20.40
2018-01-21T01:57:58.239Z,20.30
2018-01-21T02:00:27.285Z,20.30
2018-01-21T02:02:55.753Z,20.30
2018-01-21T02:05:23.853Z,20.30
2018-01-21T02:07:52.406Z,20.20
2018-01-21T02:10:20.651Z,20.30
2018-01-21T02:12:49.798Z,20.30
2018-01-21T02:15:18.132Z,20.30
2018-01-21T02:17:47.429Z,20.30
2018-01-21T02:20:19.066Z,20.30
2018-01-21T02:22:47.546Z,20.20
2018-01-21T02:25:15.884Z,20.30
2018-01-21T02:27:44.205Z,20.30
2018-01-21T02:30:12.541Z,20.30
2018-01-21T02:32:40.759Z,20.40
2018-01-21T02:35:10.052Z,20.50
2018-01-21T02:37:40.653Z,20.30
2018-01-21T02:40:09.291Z,20.30
2018-01-21T02:42:38.106Z,20.40
2018-01-21T02:45:07.713Z,20.40
2018-01-21T02:47:36.055Z,20.30
2018-01-21T02:50:04.617Z,20.30
2018-01-21T02:52:34.065Z,20.30
2018-01-21T02:55:04.255Z,20.30
2018-01-21T02:57:32.871Z,20.30
2018-01-21T03:00:03.089Z,20.30
2018-01-21T03:02:31.961Z,20.30
2018-01-21T03:04:59.921Z,20.30
2018-01-21T03:07:28.523Z,20.20
2018-01-21T03:09:57.189Z,20.20
2018-01-21T03:12:25.673Z,20.20
2018-01-21T03:14:53.877Z,20.20
2018-01-21T03:17:22.585Z,20.30
2018-01-21T03:19:51.259Z,20.30
2018-01-21T03:22:19.481Z,20.30
2018-01-21T03:24:48.171Z,20.30
2018-01-21T03:27:16.784Z,20.30
2018-01-21T03:29:46.099Z,20.30
2018-01-21T03:32:14.217Z,20.30
2018-01-21T03:34:43.395Z,20.30
2018-01-21T03:37:12.410Z,20.40
2018-01-21T03:39:40.491Z,20.40
2018-01-21T03:42:08.849Z,20.30
2018-01-21T03:44:37.329Z,20.40
2018-01-21T03:47:05.683Z,20.50
2018-01-21T03:49:34.141Z,20.50
2018-01-21T03:52:02.864Z,20.60
2018-01-21T03:54:31.677Z,20.60
2018-01-21T03:57:00.085Z,20.60
2018-01-21T03:59:31.679Z,20.60
2018-01-21T04:02:02.158Z,21.00
2018-01-21T04:04:30.291Z,21.00
2018-01-21T04:06:59.138Z,21.20
2018-01-21T04:09:27.663Z,21.10
2018-01-21T04:11:56.643Z,21.10
2018-01-21T04:14:25.846Z,21.30
2018-01-21T04:16:54.372Z,21.30
2018-01-21T04:19:22.887Z,21.40
2018-01-21T04:21:51.194Z,21.60
2018-01-21T04:24:19.262Z,21.70
2018-01-21T04:26:47.461Z,21.80
2018-01-21T04:29:15.900Z,21.70
2018-01-21T04:31:43.820Z,21.60
2018-01-21T04:34:11.878Z,21.60
2018-01-21T04:36:40.782Z,21.60
2018-01-21T04:39:09.388Z,21.60
2018-01-21T04:41:37.445Z,21.60
2018-01-21T04:44:05.376Z,21.60
2018-01-21T04:46:35.451Z,21.70
2018-01-21T04:49:04.031Z,21.70
2018-01-21T04:51:32.137Z,21.60
2018-01-21T04:54:00.261Z,21.70
2018-01-21T04:56:29.229Z,22.20
2018-01-21T04:58:57.817Z,22.20
2018-01-21T05:01:26.490Z,22.40
2018-01-21T05:03:54.555Z,22.40
2018-01-21T05:06:23.197Z,22.40
2018-01-21T05:08:51.445Z,22.20
2018-01-21T05:11:20.568Z,22.20
2018-01-21T05:13:48.488Z,22.20
2018-01-21T05:16:16.585Z,22.10
2018-01-21T05:18:45.551Z,22.30
2018-01-21T05:21:13.501Z,22.30
2018-01-21T05:23:41.423Z,22.30
2018-01-21T05:26:10.220Z,22.80
2018-01-21T05:28:38.895Z,22.80
2018-01-21T05:31:07.545Z,22.90
2018-01-21T05:33:35.584Z,22.90
2018-01-21T05:36:03.567Z,23.00
2018-01-21T05:38:31.511Z,23.10
2018-01-21T05:41:00.415Z,23.10
2018-01-21T05:43:28.345Z,23.10
2018-01-21T05:45:56.322Z,23.20
2018-01-21T05:48:25.243Z,23.20
2018-01-21T05:50:53.302Z,23.20
2018-01-21T05:53:21.955Z,23.40
2018-01-21T05:55:49.999Z,23.40
2018-01-21T05:58:17.917Z,23.50
2018-01-21T06:00:46.663Z,23.50
2018-01-21T06:03:14.723Z,23.50
2018-01-21T06:05:42.723Z,23.80
2018-01-21T06:08:10.664Z,23.80
2018-01-21T06:10:38.734Z,23.90
2018-01-21T06:13:06.707Z,23.70
2018-01-21T06:15:34.676Z,24.00
2018-01-21T06:18:02.749Z,24.10
2018-01-21T06:20:30.947Z,24.10
2018-01-21T06:22:59.095Z,24.10
2018-01-21T06:25:27.230Z,24.20
2018-01-21T06:27:55.955Z,24.00
2018-01-21T06:30:23.872Z,24.00
2018-01-21T06:32:51.941Z,23.90
2018-01-21T06:35:20.024Z,24.10
2018-01-21T06:37:48.797Z,24.50
2018-01-21T06:40:16.819Z,24.50
2018-01-21T06:42:44.726Z,24.50
2018-01-21T06:45:12.671Z,24.60
2018-01-21T06:47:40.738Z,24.50
2018-01-21T06:50:08.701Z,23.90
2018-01-21T06:52:36.637Z,23.70
2018-01-21T06:55:04.702Z,24.00
2018-01-21T06:57:32.743Z,24.00
2018-01-21T07:00:00.671Z,24.00
2018-01-21T07:02:28.753Z,24.30
2018-01-21T07:04:56.701Z,24.70
2018-01-21T07:07:25.385Z,24.70
2018-01-21T07:09:53.465Z,24.70
2018-01-21T07:12:22.116Z,24.50
2018-01-21T07:14:50.070Z,24.50
2018-01-21T07:17:18.178Z,24.40
2018-01-21T07:19:46.121Z,24.40
2018-01-21T07:22:14.195Z,24.50
2018-01-21T07:24:42.251Z,24.60
2018-01-21T07:27:10.693Z,24.90
2018-01-21T07:29:39.463Z,24.80
2018-01-21T07:32:07.519Z,24.80
2018-01-21T07:34:36.220Z,24.60
2018-01-21T07:37:04.271Z,24.60
2018-01-21T07:39:32.308Z,24.10
2018-01-21T07:42:00.265Z,23.90
2018-01-21T07:44:28.907Z,24.30
2018-01-21T07:46:57.117Z,24.20
2018-01-21T07:49:25.794Z,24.40
2018-01-21T07:51:53.710Z,24.40
2018-01-21T07:54:21.775Z,24.40
2018-01-21T07:56:49.797Z,24.70
2018-01-21T07:59:17.724Z,24.70
2018-01-21T08:01:45.777Z,24.50
2018-01-21T08:04:13.714Z,24.40
2018-01-21T08:06:41.762Z,24.40
2018-01-21T08:09:09.829Z,24.50
2018-01-21T08:11:37.753Z,24.90
2018-01-21T08:14:06.406Z,24.80
2018-01-21T08:16:34.609Z,24.80
2018-01-21T08:19:03.267Z,24.60
2018-01-21T08:21:31.205Z,24.60
2018-01-21T08:23:59.403Z,24.80
2018-01-21T08:26:27.346Z,24.90
2018-01-21T08:28:55.397Z,24.70
2018-01-21T08:31:24.183Z,24.60
2018-01-21T08:33:58.633Z,24.40
2018-01-21T08:36:32.289Z,24.40
2018-01-21T08:39:06.760Z,24.40
2018-01-21T08:41:38.621Z,24.40
2018-01-21T08:44:06.543Z,24.60
2018-01-21T08:46:35.297Z,24.20
2018-01-21T08:49:03.638Z,24.20
2018-01-21T08:51:31.629Z,24.20
2018-01-21T08:53:59.559Z,24.40
2018-01-21T08:56:28.447Z,24.20
2018-01-21T08:58:57.095Z,24.60
2018-01-21T09:01:25.029Z,24.50
2018-01-21T09:03:53.115Z,24.60
2018-01-21T09:06:21.117Z,24.30
2018-01-21T09:08:49.181Z,24.40
2018-01-21T09:11:17.245Z,24.20
2018-01-21T09:13:45.155Z,24.40
2018-01-21T09:16:13.095Z,24.50
2018-01-21T09:18:41.160Z,24.40
2018-01-21T09:21:09.095Z,24.30
2018-01-21T09:23:37.007Z,24.20
2018-01-21T09:26:05.302Z,24.20
2018-01-21T09:28:33.238Z,24.60
2018-01-21T09:31:01.191Z,24.40
2018-01-21T09:33:29.247Z,24.40
2018-01-21T09:35:57.911Z,24.20
2018-01-21T09:38:25.874Z,24.10
2018-01-21T09:40:53.962Z,24.00
2018-01-21T09:43:22.637Z,24.30
2018-01-21T09:45:50.675Z,24.30
2018-01-21T09:48:18.771Z,24.20
2018-01-21T09:50:46.726Z,24.20
2018-01-21T09:53:14.663Z,24.00
2018-01-21T09:55:42.726Z,24.20
2018-01-21T09:58:11.410Z,24.10
2018-01-21T10:00:40.077Z,24.20
2018-01-21T10:03:08.143Z,24.20
2018-01-21T10:05:36.205Z,24.20
2018-01-21T10:08:04.149Z,24.20
2018-01-21T10:10:32.229Z,24.30
2018-01-21T10:13:00.173Z,24.20
2018-01-21T10:15:28.093Z,24.20
2018-01-21T10:17:56.239Z,24.20
2018-01-21T10:20:24.147Z,24.20
2018-01-21T10:22:52.068Z,24.10
2018-01-21T10:25:20.127Z,23.80
2018-01-21T10:27:48.213Z,23.90
2018-01-21T10:30:16.165Z,23.90
2018-01-21T10:32:44.216Z,23.80
2018-01-21T10:35:12.881Z,23.80
2018-01-21T10:37:40.810Z,23.70
2018-01-21T10:40:08.838Z,23.50
2018-01-21T10:42:37.507Z,23.40
2018-01-21T10:45:05.443Z,23.40
2018-01-21T10:47:33.530Z,23.60
2018-01-21T10:50:01.462Z,23.50
2018-01-21T10:52:29.436Z,23.40
2018-01-21T10:54:57.510Z,23.50
2018-01-21T10:57:25.503Z,23.50
2018-01-21T10:59:53.419Z,23.60
2018-01-21T11:02:22.208Z,23.60
2018-01-21T11:04:50.875Z,23.40
2018-01-21T11:07:18.920Z,23.40
2018-01-21T11:09:46.979Z,23.40
2018-01-21T11:12:14.913Z,23.30
2018-01-21T11:14:43.608Z,23.30
2018-01-21T11:17:12.483Z,23.30
2018-01-21T11:19:40.423Z,23.30
2018-01-21T11:22:08.592Z,23.20
2018-01-21T11:24:36.738Z,23.10
2018-01-21T11:27:04.970Z,23.10
2018-01-21T11:29:33.202Z,23.10
2018-01-21T11:32:02.183Z,23.00
2018-01-21T11:34:30.380Z,23.00
2018-01-21T11:36:58.525Z,22.90
2018-01-21T11:39:27.433Z,23.10
2018-01-21T11:41:55.372Z,23.10
2018-01-21T11:44:24.191Z,23.00
2018-01-21T11:46:52.342Z,23.00
2018-01-21T11:49:21.062Z,22.90
2018-01-21T11:51:49.021Z,22.90
2018-01-21T11:54:17.095Z,22.80
2018-01-21T11:56:45.125Z,22.80
2018-01-21T11:59:13.832Z,22.80
2018-01-21T12:01:42.659Z,22.90
2018-01-21T12:04:10.722Z,22.80
2018-01-21T12:06:38.706Z,22.90
2018-01-21T12:09:06.768Z,22.90
2018-01-21T12:11:34.676Z,22.80
2018-01-21T12:14:02.642Z,22.90
2018-01-21T12:16:30.849Z,22.80
2018-01-21T12:18:59.528Z,22.80
2018-01-21T12:21:28.222Z,22.70
2018-01-21T12:23:57.030Z,22.80
2018-01-21T12:26:25.747Z,22.70
2018-01-21T12:28:53.685Z,22.70
2018-01-21T12:31:22.607Z,22.30
2018-01-21T12:33:50.517Z,22.30
2018-01-21T12:36:18.573Z,22.40
2018-01-21T12:38:46.677Z,22.30
2018-01-21T12:41:15.341Z,22.40
2018-01-21T12:43:43.319Z,22.30
2018-01-21T12:46:11.491Z,22.30
2018-01-21T12:48:39.491Z,22.30
2018-01-21T12:51:08.224Z,22.20
2018-01-21T12:53:36.315Z,22.20
2018-01-21T12:56:04.285Z,22.20
2018-01-21T12:58:32.219Z,22.10
2018-01-21T13:01:00.278Z,22.20
2018-01-21T13:03:28.369Z,22.10
2018-01-21T13:05:56.321Z,22.20
2018-01-21T13:08:24.433Z,22.10
2018-01-21T13:10:52.392Z,21.90
2018-01-21T13:13:20.350Z,21.90
2018-01-21T13:15:48.496Z,21.70
2018-01-21T13:18:16.498Z,21.90
2018-01-21T13:20:44.499Z,21.90
2018-01-21T13:23:12.600Z,21.80
2018-01-21T13:25:40.653Z,21.70
2018-01-21T13:28:08.759Z,21.70
2018-01-21T13:30:37.605Z,21.70
2018-01-21T13:33:05.734Z,21.60
2018-01-21T13:35:33.813Z,21.70
2018-01-21T13:38:03.587Z,21.50
2018-01-21T13:40:31.535Z,21.50
2018-01-21T13:43:02.778Z,21.50
2018-01-21T13:45:31.359Z,21.50
2018-01-21T13:48:00.109Z,21.50
2018-01-21T13:50:28.165Z,21.50
2018-01-21T13:52:56.943Z,21.50
2018-01-21T13:55:24.931Z,21.40
2018-01-21T13:57:53.660Z,21.30
2018-01-21T14:00:21.710Z,21.30
2018-01-21T14:02:49.641Z,21.40
2018-01-21T14:05:17.681Z,21.30
2018-01-21T14:07:45.789Z,21.30
2018-01-21T14:10:13.726Z,21.30
2018-01-21T14:12:41.723Z,21.30
2018-01-21T14:15:09.791Z,21.20
2018-01-21T14:17:37.700Z,21.20
2018-01-21T14:20:05.725Z,21.20
2018-01-21T14:22:34.070Z,21.20
2018-01-21T14:25:02.071Z,21.20
2018-01-21T14:27:30.085Z,21.20
2018-01-21T14:29:58.898Z,21.20
2018-01-21T14:32:26.853Z,21.10
2018-01-21T14:34:55.105Z,21.20
2018-01-21T14:37:23.148Z,21.20
2018-01-21T14:39:51.089Z,21.10
2018-01-21T14:42:19.049Z,21.10
2018-01-21T14:44:47.146Z,21.20
2018-01-21T14:47:15.191Z,21.20
2018-01-21T14:49:43.123Z,21.30
2018-01-21T14:52:11.157Z,21.20
2018-01-21T14:54:39.275Z,21.20
2018-01-21T14:57:07.393Z,21.00
2018-01-21T14:59:35.507Z,21.10
2018-01-21T15:02:03.467Z,21.00
2018-01-21T15:04:31.436Z,21.10
2018-01-21T15:06:59.599Z,21.00
2018-01-21T15:09:27.577Z,21.00
2018-01-21T15:11:55.527Z,21.10
2018-01-21T15:14:23.627Z,21.00
2018-01-21T15:16:51.587Z,21.10
2018-01-21T15:19:19.530Z,20.90
2018-01-21T15:21:47.623Z,20.90
2018-01-21T15:24:15.623Z,20.90
2018-01-21T15:26:43.737Z,21.00
2018-01-21T15:29:12.536Z,20.90
2018-01-21T15:31:40.483Z,20.90
2018-01-21T15:34:09.161Z,21.00
2018-01-21T15:36:38.177Z,21.00
2018-01-21T15:39:06.191Z,21.00
2018-01-21T15:41:34.155Z,21.00
2018-01-21T15:44:02.281Z,20.90
2018-01-21T15:46:31.061Z,21.10
2018-01-21T15:48:59.008Z,21.10
2018-01-21T15:51:28.980Z,20.90
2018-01-21T15:53:56.928Z,20.90
2018-01-21T15:56:25.734Z,20.90
2018-01-21T15:58:53.807Z,20.90
2018-01-21T16:01:21.813Z,20.90
2018-01-21T16:03:49.815Z,21.00
2018-01-21T16:06:18.073Z,21.00
2018-01-21T16:08:46.040Z,21.10
2018-01-21T16:11:14.088Z,21.10
2018-01-21T16:13:42.241Z,21.10
2018-01-21T16:16:10.332Z,21.00
2018-01-21T16:18:38.454Z,21.00
2018-01-21T16:21:06.548Z,21.00
2018-01-21T16:23:35.249Z,20.80
2018-01-21T16:26:03.277Z,20.80
2018-01-21T16:28:31.427Z,20.80
2018-01-21T16:30:59.456Z,20.90
2018-01-21T16:33:28.308Z,20.70
2018-01-21T16:35:56.381Z,20.70
2018-01-21T16:38:36.019Z,20.80
2018-01-21T16:41:04.899Z,20.90
2018-01-21T16:43:33.941Z,20.80
2018-01-21T16:46:02.753Z,20.80
2018-01-21T16:48:30.842Z,20.80
2018-01-21T16:50:58.864Z,20.80
2018-01-21T16:53:26.794Z,20.80
2018-01-21T16:55:55.388Z,20.80
2018-01-21T16:58:23.695Z,20.80
2018-01-21T17:00:51.782Z,20.80
2018-01-21T17:03:20.729Z,20.80
2018-01-21T17:05:48.697Z,20.80
2018-01-21T17:08:16.677Z,20.80
2018-01-21T17:10:44.829Z,20.80
2018-01-21T17:13:12.824Z,20.80
2018-01-21T17:15:40.863Z,20.80
2018-01-21T17:18:09.007Z,20.70
2018-01-21T17:20:37.725Z,20.70
2018-01-21T17:23:05.674Z,20.80
2018-01-21T17:25:34.580Z,20.70
2018-01-21T17:28:02.758Z,20.70
2018-01-21T17:30:30.834Z,20.60
2018-01-21T17:32:58.938Z,20.70
2018-01-21T17:35:26.995Z,20.60
2018-01-21T17:37:54.994Z,20.60
2018-01-21T17:40:23.255Z,20.60
2018-01-21T17:42:51.301Z,20.50
2018-01-21T17:45:19.315Z,20.60
2018-01-21T17:47:47.573Z,20.70
2018-01-21T17:50:15.552Z,20.70
2018-01-21T17:52:43.654Z,20.60
2018-01-21T17:55:11.771Z,20.60
2018-01-21T17:57:39.869Z,20.60
2018-01-21T18:00:08.152Z,20.60
2018-01-21T18:02:36.349Z,20.60
2018-01-21T18:05:04.461Z,20.60
2018-01-21T18:07:32.512Z,20.60
2018-01-21T18:10:01.448Z,20.60
2018-01-21T18:12:29.439Z,20.60
2018-01-21T18:14:57.537Z,20.60
2018-01-21T18:17:25.779Z,20.70
2018-01-21T18:19:53.723Z,20.70
2018-01-21T18:22:21.662Z,20.70
2018-01-21T18:24:49.737Z,20.70
2018-01-21T18:27:18.522Z,20.60
2018-01-21T18:29:46.430Z,20.50
2018-01-21T18:32:14.565Z,20.60
2018-01-21T18:34:42.537Z,20.70
2018-01-21T18:37:10.597Z,20.70
2018-01-21T18:39:38.733Z,20.70
2018-01-21T18:42:06.933Z,20.60
2018-01-21T18:44:34.884Z,20.60
2018-01-21T18:47:03.008Z,20.60
2018-01-21T18:49:30.993Z,20.60
2018-01-21T18:51:59.635Z,20.70
2018-01-21T18:54:27.671Z,20.70
2018-01-21T18:56:55.650Z,20.70
2018-01-21T18:59:23.623Z,20.70
2018-01-21T19:01:51.725Z,20.70
2018-01-21T19:04:19.723Z,20.70
2018-01-21T19:06:48.470Z,20.60
2018-01-21T19:09:16.568Z,20.60
2018-01-21T19:11:44.535Z,20.60
2018-01-21T19:14:12.503Z,20.60
2018-01-21T19:16:40.765Z,20.60
2018-01-21T19:19:08.680Z,20.60
2018-01-21T19:21:37.455Z,20.70
2018-01-21T19:24:05.516Z,20.60
2018-01-21T19:26:33.613Z,20.60
2018-01-21T19:29:01.717Z,20.60
2018-01-21T19:31:29.835Z,20.60
2018-01-21T19:33:57.739Z,20.60
2018-01-21T19:36:26.443Z,20.50
2018-01-21T19:39:00.344Z,20.50
2018-01-21T19:41:48.804Z,20.50
2018-01-21T19:44:17.159Z,20.50
2018-01-21T19:46:45.960Z,20.50
2018-01-21T19:49:13.985Z,20.50
2018-01-21T19:51:42.110Z,20.50
2018-01-21T19:54:10.028Z,20.40
2018-01-21T19:56:38.078Z,20.40
2018-01-21T19:59:06.143Z,20.40
2018-01-21T20:01:34.115Z,20.40
2018-01-21T20:04:02.105Z,20.40
2018-01-21T20:06:30.341Z,20.50
2018-01-21T20:08:58.293Z,20.40
2018-01-21T20:11:26.993Z,20.30
2018-01-21T20:13:55.129Z,20.30
2018-01-21T20:16:23.080Z,20.30
2018-01-21T20:18:51.034Z,20.30
2018-01-21T20:21:19.193Z,20.30
2018-01-21T20:23:47.167Z,20.40
2018-01-21T20:26:15.202Z,20.40
2018-01-21T20:28:43.310Z,20.40
2018-01-21T20:31:11.258Z,20.30
2018-01-21T20:33:39.923Z,20.20
2018-01-21T20:36:07.995Z,20.30
2018-01-21T20:38:36.005Z,20.20
2018-01-21T20:41:03.951Z,20.30
2018-01-21T20:43:32.045Z,20.20
2018-01-21T20:46:00.847Z,20.00
2018-01-21T20:48:28.832Z,20.00
2018-01-21T20:51:02.622Z,20.10
2018-01-21T20:53:36.200Z,20.10
2018-01-21T20:56:04.990Z,20.00
2018-01-21T20:58:33.651Z,19.90
2018-01-21T21:01:01.582Z,19.90
2018-01-21T21:03:29.503Z,19.90
2018-01-21T21:05:57.417Z,19.80
2018-01-21T21:08:25.413Z,19.80
2018-01-21T21:10:53.493Z,19.70
2018-01-21T21:13:21.446Z,19.70
2018-01-21T21:15:49.405Z,19.70
2018-01-21T21:18:17.485Z,19.70
2018-01-21T21:20:45.409Z,19.60
2018-01-21T21:23:14.079Z,19.60
2018-01-21T21:25:42.135Z,19.60
2018-01-21T21:28:10.051Z,19.60
2018-01-21T21:30:38.830Z,19.40
2018-01-21T21:33:07.611Z,19.30
2018-01-21T21:35:36.357Z,19.30
2018-01-21T21:38:04.432Z,19.30
2018-01-21T21:40:32.477Z,19.20
2018-01-21T21:43:00.430Z,19.20
2018-01-21T21:45:29.087Z,19.00
2018-01-21T21:47:57.303Z,19.00
2018-01-21T21:50:25.219Z,19.10
2018-01-21T21:52:53.142Z,19.10
2018-01-21T21:55:21.218Z,19.00
2018-01-21T21:57:49.141Z,19.00
2018-01-21T22:00:17.107Z,19.00
2018-01-21T22:02:45.183Z,19.00
2018-01-21T22:05:13.130Z,19.00
2018-01-21T22:07:41.061Z,19.00
2018-01-21T22:10:09.129Z,19.00
2018-01-21T22:12:37.787Z,18.90
2018-01-21T22:15:05.720Z,18.90
2018-01-21T22:17:33.769Z,18.80
2018-01-21T22:20:01.701Z,18.80
2018-01-21T22:22:29.611Z,18.70
2018-01-21T22:24:57.682Z,18.80
2018-01-21T22:27:25.609Z,18.80
2018-01-21T22:29:54.460Z,18.80
2018-01-21T22:32:22.503Z,18.70
2018-01-21T22:34:51.167Z,18.60
2018-01-21T22:37:19.212Z,18.60
2018-01-21T22:39:47.281Z,18.50
2018-01-21T22:42:15.214Z,18.50
2018-01-21T22:44:43.127Z,18.40
2018-01-21T22:47:11.237Z,18.50
2018-01-21T22:49:40.045Z,18.40
2018-01-21T22:52:07.988Z,18.40
2018-01-21T22:54:36.789Z,18.30
2018-01-21T22:57:06.806Z,18.20
2018-01-21T22:59:34.828Z,18.20
2018-01-21T23:02:02.976Z,18.20
2018-01-21T23:04:30.987Z,18.20
2018-01-21T23:06:59.048Z,17.90
2018-01-21T23:09:27.188Z,17.80
2018-01-21T23:11:55.825Z,18.00
2018-01-21T23:14:23.793Z,18.00
2018-01-21T23:16:51.909Z,17.90
2018-01-21T23:19:20.581Z,17.80
2018-01-21T23:21:49.230Z,17.80
2018-01-21T23:24:17.275Z,17.70
2018-01-21T23:26:45.281Z,17.80
2018-01-21T23:29:13.243Z,17.80
2018-01-21T23:31:41.305Z,17.70
2018-01-21T23:34:09.253Z,17.50
2018-01-21T23:36:37.393Z,17.40
2018-01-21T23:39:05.577Z,17.50
2018-01-21T23:41:34.235Z,17.70
2018-01-21T23:44:02.139Z,17.70
2018-01-21T23:46:30.994Z,17.70
2018-01-21T23:48:59.081Z,17.70
2018-01-21T23:51:27.131Z,17.70
2018-01-21T23:53:55.183Z,17.70
2018-01-21T23:56:23.165Z,17.60
2018-01-21T23:58:51.073Z,17.70
